sensor_id;sensor_type;location;lat;lon;timestamp;pressure;altitude;pressure_sealevel;temperature;humidity
20897;BME280;10608;42.600;23.398;2024-03-25T00:01:20;84335.31;;;-138.15;91.15
20897;BME280;10608;42.600;23.398;2024-03-25T00:03:45;84329.34;;;-138.15;90.56
20897;BME280;10608;42.600;23.398;2024-03-25T00:06:11;84339.28;;;-138.15;90.29
20897;BME280;10608;42.600;23.398;2024-03-25T00:08:36;84367.13;;;-138.15;90.57
20897;BME280;10608;42.600;23.398;2024-03-25T00:11:02;84329.34;;;-138.15;90.19
20897;BME280;10608;42.600;23.398;2024-03-25T00:13:27;84355.19;;;-138.15;90.34
20897;BME280;10608;42.600;23.398;2024-03-25T00:15:53;84351.22;;;-138.15;89.94
20897;BME280;10608;42.600;23.398;2024-03-25T00:18:18;84305.50;;;-138.15;89.97
20897;BME280;10608;42.600;23.398;2024-03-25T00:20:43;84371.09;;;-138.15;89.55
20897;BME280;10608;42.600;23.398;2024-03-25T00:23:09;84325.38;;;-138.15;89.85
20897;BME280;10608;42.600;23.398;2024-03-25T00:25:34;84367.13;;;-138.15;89.61
20897;BME280;10608;42.600;23.398;2024-03-25T00:28:00;84373.09;;;-138.15;89.75
20897;BME280;10608;42.600;23.398;2024-03-25T00:30:25;84363.16;;;-138.15;90.25
20897;BME280;10608;42.600;23.398;2024-03-25T00:32:50;84387.00;;;-138.15;90.38
20897;BME280;10608;42.600;23.398;2024-03-25T00:35:16;84385.00;;;-138.15;91.21
20897;BME280;10608;42.600;23.398;2024-03-25T00:37:43;84357.19;;;-138.15;91.53
20897;BME280;10608;42.600;23.398;2024-03-25T00:40:10;84387.00;;;-138.15;91.30
20897;BME280;10608;42.600;23.398;2024-03-25T00:42:36;84353.19;;;-138.15;91.28
20897;BME280;10608;42.600;23.398;2024-03-25T00:45:02;84357.19;;;-138.15;91.56
20897;BME280;10608;42.600;23.398;2024-03-25T00:47:27;84291.56;;;-138.15;91.53
20897;BME280;10608;42.600;23.398;2024-03-25T00:49:53;84341.28;;;-138.15;91.01
20897;BME280;10608;42.600;23.398;2024-03-25T00:52:18;84367.13;;;-138.15;91.12
20897;BME280;10608;42.600;23.398;2024-03-25T00:54:44;84351.22;;;-138.15;91.44
20897;BME280;10608;42.600;23.398;2024-03-25T00:57:09;84363.16;;;-138.15;90.82
20897;BME280;10608;42.600;23.398;2024-03-25T00:59:37;84379.06;;;-138.15;90.82
20897;BME280;10608;42.600;23.398;2024-03-25T01:02:02;84375.06;;;-138.15;89.96
20897;BME280;10608;42.600;23.398;2024-03-25T01:04:27;84303.50;;;-138.15;90.27
20897;BME280;10608;42.600;23.398;2024-03-25T01:06:54;84319.41;;;-138.15;90.27
20897;BME280;10608;42.600;23.398;2024-03-25T01:09:19;84325.38;;;-138.15;90.01
20897;BME280;10608;42.600;23.398;2024-03-25T01:11:47;84353.19;;;-138.15;89.68
20897;BME280;10608;42.600;23.398;2024-03-25T01:14:12;84498.34;;;-138.15;89.83
20897;BME280;10608;42.600;23.398;2024-03-25T01:16:38;84307.47;;;-138.15;89.47
20897;BME280;10608;42.600;23.398;2024-03-25T01:19:03;84347.25;;;-138.15;89.10
20897;BME280;10608;42.600;23.398;2024-03-25T01:21:28;84333.31;;;-138.15;88.54
20897;BME280;10608;42.600;23.398;2024-03-25T01:23:55;84329.34;;;-138.15;88.57
20897;BME280;10608;42.600;23.398;2024-03-25T01:26:21;84331.34;;;-138.15;87.99
20897;BME280;10608;42.600;23.398;2024-03-25T01:28:46;84289.59;;;-138.15;87.46
20897;BME280;10608;42.600;23.398;2024-03-25T01:31:12;84337.31;;;-138.15;87.72
20897;BME280;10608;42.600;23.398;2024-03-25T01:33:37;84351.22;;;-138.15;88.35
20897;BME280;10608;42.600;23.398;2024-03-25T01:36:03;84301.50;;;-138.15;88.42
20897;BME280;10608;42.600;23.398;2024-03-25T01:38:29;84327.34;;;-138.15;88.88
20897;BME280;10608;42.600;23.398;2024-03-25T01:40:54;84305.50;;;-138.15;88.17
20897;BME280;10608;42.600;23.398;2024-03-25T01:43:22;84329.34;;;-138.15;88.02
20897;BME280;10608;42.600;23.398;2024-03-25T01:45:47;84275.66;;;-138.15;88.40
20897;BME280;10608;42.600;23.398;2024-03-25T01:48:14;84313.44;;;-138.15;88.73
20897;BME280;10608;42.600;23.398;2024-03-25T01:50:42;84289.59;;;-138.15;88.21
20897;BME280;10608;42.600;23.398;2024-03-25T01:53:09;84271.69;;;-138.15;87.67
20897;BME280;10608;42.600;23.398;2024-03-25T01:55:37;84283.63;;;-138.15;87.27
20897;BME280;10608;42.600;23.398;2024-03-25T01:58:04;84285.59;;;-138.15;86.96
20897;BME280;10608;42.600;23.398;2024-03-25T02:00:30;84265.72;;;-138.15;87.07
20897;BME280;10608;42.600;23.398;2024-03-25T02:02:56;84309.47;;;-138.15;87.93
20897;BME280;10608;42.600;23.398;2024-03-25T02:05:22;84339.28;;;-138.15;88.94
20897;BME280;10608;42.600;23.398;2024-03-25T02:07:48;84335.31;;;-138.15;88.75
20897;BME280;10608;42.600;23.398;2024-03-25T02:10:15;84283.63;;;-138.15;89.21
20897;BME280;10608;42.600;23.398;2024-03-25T02:12:44;84283.63;;;-138.15;88.98
20897;BME280;10608;42.600;23.398;2024-03-25T02:15:11;84301.50;;;-138.15;88.69
20897;BME280;10608;42.600;23.398;2024-03-25T02:17:37;84319.41;;;-138.15;88.99
20897;BME280;10608;42.600;23.398;2024-03-25T02:20:03;84325.38;;;-138.15;89.23
20897;BME280;10608;42.600;23.398;2024-03-25T02:22:31;84323.38;;;-138.15;89.29
20897;BME280;10608;42.600;23.398;2024-03-25T02:24:57;84281.63;;;-138.15;88.91
20897;BME280;10608;42.600;23.398;2024-03-25T02:27:24;84329.34;;;-138.15;88.89
20897;BME280;10608;42.600;23.398;2024-03-25T02:29:50;84279.66;;;-138.15;88.97
20897;BME280;10608;42.600;23.398;2024-03-25T02:32:15;84371.09;;;-138.15;89.01
20897;BME280;10608;42.600;23.398;2024-03-25T02:34:44;84371.09;;;-138.15;89.71
20897;BME280;10608;42.600;23.398;2024-03-25T02:37:11;84381.03;;;-138.15;89.80
20897;BME280;10608;42.600;23.398;2024-03-25T02:39:37;84416.81;;;-138.15;90.69
20897;BME280;10608;42.600;23.398;2024-03-25T02:42:03;84400.91;;;-138.15;91.59
20897;BME280;10608;42.600;23.398;2024-03-25T02:44:30;84394.94;;;-138.15;91.22
20897;BME280;10608;42.600;23.398;2024-03-25T02:46:57;84390.97;;;-138.15;91.35
20897;BME280;10608;42.600;23.398;2024-03-25T02:49:22;84424.78;;;-138.15;91.37
20897;BME280;10608;42.600;23.398;2024-03-25T02:51:48;84381.03;;;-138.15;91.63
20897;BME280;10608;42.600;23.398;2024-03-25T02:54:13;84379.06;;;-138.15;92.26
20897;BME280;10608;42.600;23.398;2024-03-25T02:56:40;84414.84;;;-138.15;91.93
20897;BME280;10608;42.600;23.398;2024-03-25T02:59:05;84422.78;;;-138.15;92.01
20897;BME280;10608;42.600;23.398;2024-03-25T03:01:30;84422.78;;;-138.15;92.69
20897;BME280;10608;42.600;23.398;2024-03-25T03:03:56;84414.84;;;-138.15;93.02
20897;BME280;10608;42.600;23.398;2024-03-25T03:06:21;84369.09;;;-138.15;93.08
20897;BME280;10608;42.600;23.398;2024-03-25T03:08:47;84416.81;;;-138.15;91.49
20897;BME280;10608;42.600;23.398;2024-03-25T03:11:13;84404.91;;;-138.15;90.35
20897;BME280;10608;42.600;23.398;2024-03-25T03:13:38;84414.84;;;-138.15;88.80
20897;BME280;10608;42.600;23.398;2024-03-25T03:16:04;84436.72;;;-138.15;88.33
20897;BME280;10608;42.600;23.398;2024-03-25T03:18:30;84353.19;;;-138.15;87.27
20897;BME280;10608;42.600;23.398;2024-03-25T03:20:55;84416.81;;;-138.15;85.31
20897;BME280;10608;42.600;23.398;2024-03-25T03:23:22;84406.88;;;-138.15;85.03
20897;BME280;10608;42.600;23.398;2024-03-25T03:25:47;84410.84;;;-138.15;84.62
20897;BME280;10608;42.600;23.398;2024-03-25T03:28:13;84406.88;;;-138.15;84.75
20897;BME280;10608;42.600;23.398;2024-03-25T03:30:40;84414.84;;;-138.15;84.56
20897;BME280;10608;42.600;23.398;2024-03-25T03:33:05;84390.97;;;-138.15;84.21
20897;BME280;10608;42.600;23.398;2024-03-25T03:35:35;84432.72;;;-138.15;85.09
20897;BME280;10608;42.600;23.398;2024-03-25T03:38:00;84434.72;;;-138.15;84.00
20897;BME280;10608;42.600;23.398;2024-03-25T03:40:26;84426.75;;;-138.15;82.33
20897;BME280;10608;42.600;23.398;2024-03-25T03:42:52;84375.06;;;-138.15;80.82
20897;BME280;10608;42.600;23.398;2024-03-25T03:45:17;84414.84;;;-138.15;79.59
20897;BME280;10608;42.600;23.398;2024-03-25T03:47:42;84396.94;;;-138.15;79.60
20897;BME280;10608;42.600;23.398;2024-03-25T03:50:09;84396.94;;;-138.15;78.60
20897;BME280;10608;42.600;23.398;2024-03-25T03:52:34;84379.06;;;-138.15;78.08
20897;BME280;10608;42.600;23.398;2024-03-25T03:55:00;84369.09;;;-138.15;76.53
20897;BME280;10608;42.600;23.398;2024-03-25T03:57:25;84383.03;;;-138.15;74.82
20897;BME280;10608;42.600;23.398;2024-03-25T03:59:53;84365.13;;;-138.15;73.99
20897;BME280;10608;42.600;23.398;2024-03-25T04:02:20;84383.03;;;-138.15;73.87
20897;BME280;10608;42.600;23.398;2024-03-25T04:04:45;84367.13;;;-138.15;73.90
20897;BME280;10608;42.600;23.398;2024-03-25T04:07:11;84355.19;;;-138.15;73.66
20897;BME280;10608;42.600;23.398;2024-03-25T04:09:36;84390.97;;;-138.15;72.44
20897;BME280;10608;42.600;23.398;2024-03-25T04:12:02;84337.31;;;-138.15;71.88
20897;BME280;10608;42.600;23.398;2024-03-25T04:14:27;84361.16;;;-138.15;71.97
20897;BME280;10608;42.600;23.398;2024-03-25T04:16:52;84357.19;;;-138.15;70.89
20897;BME280;10608;42.600;23.398;2024-03-25T04:19:19;84371.09;;;-138.15;69.07
20897;BME280;10608;42.600;23.398;2024-03-25T04:21:45;84389.00;;;-138.15;68.79
20897;BME280;10608;42.600;23.398;2024-03-25T04:24:11;84381.03;;;-138.15;69.19
20897;BME280;10608;42.600;23.398;2024-03-25T04:26:37;84398.94;;;-138.15;68.07
20897;BME280;10608;42.600;23.398;2024-03-25T04:29:02;84373.09;;;-138.15;67.82
20897;BME280;10608;42.600;23.398;2024-03-25T04:31:27;84359.16;;;-138.15;67.47
20897;BME280;10608;42.600;23.398;2024-03-25T04:33:53;84371.09;;;-138.15;66.40
20897;BME280;10608;42.600;23.398;2024-03-25T04:36:18;84390.97;;;-138.15;66.19
20897;BME280;10608;42.600;23.398;2024-03-25T04:38:43;84426.75;;;-138.15;66.99
20897;BME280;10608;42.600;23.398;2024-03-25T04:41:09;84381.03;;;-138.15;66.32
20897;BME280;10608;42.600;23.398;2024-03-25T04:43:34;84361.16;;;-138.15;65.99
20897;BME280;10608;42.600;23.398;2024-03-25T04:46:03;84363.16;;;-138.15;65.27
20897;BME280;10608;42.600;23.398;2024-03-25T04:48:28;84351.22;;;-138.15;65.39
20897;BME280;10608;42.600;23.398;2024-03-25T04:50:54;84371.09;;;-138.15;64.27
20897;BME280;10608;42.600;23.398;2024-03-25T04:53:20;84325.38;;;-138.15;64.10
20897;BME280;10608;42.600;23.398;2024-03-25T04:55:45;84365.13;;;-138.15;63.95
20897;BME280;10608;42.600;23.398;2024-03-25T04:58:10;84381.03;;;-138.15;65.28
20897;BME280;10608;42.600;23.398;2024-03-25T05:00:36;84355.19;;;-138.15;65.00
20897;BME280;10608;42.600;23.398;2024-03-25T05:03:01;84365.13;;;-138.15;65.10
20897;BME280;10608;42.600;23.398;2024-03-25T05:05:27;84367.13;;;-138.15;64.73
20897;BME280;10608;42.600;23.398;2024-03-25T05:07:52;84275.66;;;-138.15;65.09
20897;BME280;10608;42.600;23.398;2024-03-25T05:10:17;84327.34;;;-138.15;64.53
20897;BME280;10608;42.600;23.398;2024-03-25T05:12:43;84375.06;;;-138.15;65.53
20897;BME280;10608;42.600;23.398;2024-03-25T05:15:09;84363.16;;;-138.15;66.34
20897;BME280;10608;42.600;23.398;2024-03-25T05:17:36;84351.22;;;-138.15;66.53
20897;BME280;10608;42.600;23.398;2024-03-25T05:20:01;84319.41;;;-138.15;66.22
20897;BME280;10608;42.600;23.398;2024-03-25T05:22:27;84329.34;;;-138.15;65.45
20897;BME280;10608;42.600;23.398;2024-03-25T05:24:52;84319.41;;;-138.15;64.97
20897;BME280;10608;42.600;23.398;2024-03-25T05:27:17;84355.19;;;-138.15;65.11
20897;BME280;10608;42.600;23.398;2024-03-25T05:29:43;84309.47;;;-138.15;65.10
20897;BME280;10608;42.600;23.398;2024-03-25T05:32:08;84307.47;;;-138.15;64.86
20897;BME280;10608;42.600;23.398;2024-03-25T05:34:34;84315.44;;;-138.15;64.55
20897;BME280;10608;42.600;23.398;2024-03-25T05:36:59;84255.78;;;-138.15;63.78
20897;BME280;10608;42.600;23.398;2024-03-25T05:39:24;84307.47;;;-138.15;62.02
20897;BME280;10608;42.600;23.398;2024-03-25T05:41:50;84293.56;;;-138.15;62.49
20897;BME280;10608;42.600;23.398;2024-03-25T05:44:15;84285.59;;;-138.15;63.37
20897;BME280;10608;42.600;23.398;2024-03-25T05:46:41;84287.59;;;-138.15;63.25
20897;BME280;10608;42.600;23.398;2024-03-25T05:49:06;84299.53;;;-138.15;62.47
20897;BME280;10608;42.600;23.398;2024-03-25T05:51:32;84279.66;;;-138.15;61.74
20897;BME280;10608;42.600;23.398;2024-03-25T05:54:01;84196.16;;;-138.15;61.89
20897;BME280;10608;42.600;23.398;2024-03-25T05:56:27;84210.06;;;-138.15;60.36
20897;BME280;10608;42.600;23.398;2024-03-25T05:58:56;84176.25;;;-138.15;60.74
20897;BME280;10608;42.600;23.398;2024-03-25T06:01:22;84275.66;;;-138.15;59.47
20897;BME280;10608;42.600;23.398;2024-03-25T06:03:47;84265.72;;;-138.15;59.00
20897;BME280;10608;42.600;23.398;2024-03-25T06:06:13;84227.94;;;-138.15;57.73
20897;BME280;10608;42.600;23.398;2024-03-25T06:08:38;84208.06;;;-138.15;57.34
20897;BME280;10608;42.600;23.398;2024-03-25T06:11:03;84198.13;;;-138.15;56.87
20897;BME280;10608;42.600;23.398;2024-03-25T06:13:29;84178.25;;;-138.15;57.15
20897;BME280;10608;42.600;23.398;2024-03-25T06:15:54;84072.88;;;-138.15;55.60
20897;BME280;10608;42.600;23.398;2024-03-25T06:18:20;84017.22;;;-138.15;53.41
20897;BME280;10608;42.600;23.398;2024-03-25T06:20:46;83993.38;;;-138.15;52.14
20897;BME280;10608;42.600;23.398;2024-03-25T06:23:22;84116.63;;;-138.15;52.67
20897;BME280;10608;42.600;23.398;2024-03-25T06:25:48;84096.75;;;-138.15;52.61
20897;BME280;10608;42.600;23.398;2024-03-25T06:28:13;84025.19;;;-138.15;52.76
20897;BME280;10608;42.600;23.398;2024-03-25T06:30:38;84060.97;;;-138.15;51.60
20897;BME280;10608;42.600;23.398;2024-03-25T06:33:23;83645.47;;;-138.15;47.38
20897;BME280;10608;42.600;23.398;2024-03-25T06:36:06;83257.88;;;-138.15;38.36
20897;BME280;10608;42.600;23.398;2024-03-25T06:38:32;82995.53;;;-138.15;35.62
20897;BME280;10608;42.600;23.398;2024-03-25T06:40:57;82490.75;;;-138.15;32.85
20897;BME280;10608;42.600;23.398;2024-03-25T06:43:23;82186.72;;;-138.15;30.18
20897;BME280;10608;42.600;23.398;2024-03-25T06:45:49;81894.63;;;-138.15;28.55
20897;BME280;10608;42.600;23.398;2024-03-25T06:48:14;81840.97;;;-138.15;27.50
20897;BME280;10608;42.600;23.398;2024-03-25T06:50:40;81926.41;;;-138.15;27.11
20897;BME280;10608;42.600;23.398;2024-03-25T06:53:05;81972.13;;;-138.15;27.16
20897;BME280;10608;42.600;23.398;2024-03-25T06:55:31;82069.47;;;-138.15;26.95
20897;BME280;10608;42.600;23.398;2024-03-25T06:57:56;82335.75;;;-138.15;28.41
20897;BME280;10608;42.600;23.398;2024-03-25T07:00:21;82715.31;;;-138.15;30.15
20897;BME280;10608;42.600;23.398;2024-03-25T07:02:48;82733.19;;;-138.15;30.41
20897;BME280;10608;42.600;23.398;2024-03-25T07:05:13;82788.84;;;-138.15;31.31
20897;BME280;10608;42.600;23.398;2024-03-25T07:07:39;82301.97;;;-138.15;29.50
20897;BME280;10608;42.600;23.398;2024-03-25T07:10:04;82071.47;;;-138.15;27.70
20897;BME280;10608;42.600;23.398;2024-03-25T07:12:30;81676.06;;;-138.15;26.47
20897;BME280;10608;42.600;23.398;2024-03-25T07:14:55;81827.06;;;-138.15;26.47
20897;BME280;10608;42.600;23.398;2024-03-25T07:17:21;81842.97;;;-138.15;26.16
20897;BME280;10608;42.600;23.398;2024-03-25T07:19:47;81741.63;;;-138.15;24.76
20897;BME280;10608;42.600;23.398;2024-03-25T07:22:13;81535.00;;;-138.15;25.06
20897;BME280;10608;42.600;23.398;2024-03-25T07:24:38;81191.31;;;-138.15;23.54
20897;BME280;10608;42.600;23.398;2024-03-25T07:27:03;80950.94;;;-138.15;23.45
20897;BME280;10608;42.600;23.398;2024-03-25T07:29:29;80869.50;;;-138.15;22.70
20897;BME280;10608;42.600;23.398;2024-03-25T07:31:54;80484.16;;;-138.15;21.67
20897;BME280;10608;42.600;23.398;2024-03-25T07:34:20;80241.84;;;-138.15;21.08
20897;BME280;10608;42.600;23.398;2024-03-25T07:36:45;80359.03;;;-138.15;21.32
20897;BME280;10608;42.600;23.398;2024-03-25T07:39:11;80315.31;;;-138.15;20.89
20897;BME280;10608;42.600;23.398;2024-03-25T07:41:39;80049.19;;;-138.15;20.34
20897;BME280;10608;42.600;23.398;2024-03-25T07:44:04;80168.34;;;-138.15;19.82
20897;BME280;10608;42.600;23.398;2024-03-25T07:46:30;80364.97;;;-138.15;20.44
20897;BME280;10608;42.600;23.398;2024-03-25T07:48:55;80110.75;;;-138.15;20.01
20897;BME280;10608;42.600;23.398;2024-03-25T07:51:21;80186.22;;;-138.15;20.37
20897;BME280;10608;42.600;23.398;2024-03-25T07:53:47;80059.13;;;-138.15;20.08
20897;BME280;10608;42.600;23.398;2024-03-25T07:56:12;80289.50;;;-138.15;19.96
20897;BME280;10608;42.600;23.398;2024-03-25T07:58:38;80641.06;;;-138.15;20.88
20897;BME280;10608;42.600;23.398;2024-03-25T08:01:03;80637.09;;;-138.15;21.42
20897;BME280;10608;42.600;23.398;2024-03-25T08:03:29;80778.13;;;-138.15;21.22
20897;BME280;10608;42.600;23.398;2024-03-25T08:05:54;80674.84;;;-138.15;21.56
20897;BME280;10608;42.600;23.398;2024-03-25T08:08:20;80837.72;;;-138.15;21.77
20897;BME280;10608;42.600;23.398;2024-03-25T08:10:46;80849.63;;;-138.15;22.14
20897;BME280;10608;42.600;23.398;2024-03-25T08:13:11;80799.97;;;-138.15;21.47
20897;BME280;10608;42.600;23.398;2024-03-25T08:15:36;81022.44;;;-138.15;21.37
20897;BME280;10608;42.600;23.398;2024-03-25T08:18:02;81167.47;;;-138.15;22.31
20897;BME280;10608;42.600;23.398;2024-03-25T08:20:27;81044.31;;;-138.15;22.59
20897;BME280;10608;42.600;23.398;2024-03-25T08:22:53;81060.19;;;-138.15;22.67
20897;BME280;10608;42.600;23.398;2024-03-25T08:25:18;81111.84;;;-138.15;22.39
20897;BME280;10608;42.600;23.398;2024-03-25T08:27:44;81034.38;;;-138.15;22.79
20897;BME280;10608;42.600;23.398;2024-03-25T08:30:10;81050.28;;;-138.15;22.76
20897;BME280;10608;42.600;23.398;2024-03-25T08:32:35;80855.59;;;-138.15;22.87
20897;BME280;10608;42.600;23.398;2024-03-25T08:35:01;81060.19;;;-138.15;23.30
20897;BME280;10608;42.600;23.398;2024-03-25T08:37:27;81411.81;;;-138.15;23.76
20897;BME280;10608;42.600;23.398;2024-03-25T08:39:52;81592.63;;;-138.15;24.12
20897;BME280;10608;42.600;23.398;2024-03-25T08:42:18;81576.72;;;-138.15;24.58
20897;BME280;10608;42.600;23.398;2024-03-25T08:44:43;81427.72;;;-138.15;23.62
20897;BME280;10608;42.600;23.398;2024-03-25T08:47:09;81566.78;;;-138.15;24.67
20897;BME280;10608;42.600;23.398;2024-03-25T08:49:34;81342.28;;;-138.15;23.94
20897;BME280;10608;42.600;23.398;2024-03-25T08:51:59;81233.03;;;-138.15;23.85
20897;BME280;10608;42.600;23.398;2024-03-25T08:54:25;81010.53;;;-138.15;23.04
20897;BME280;10608;42.600;23.398;2024-03-25T08:56:50;81151.59;;;-138.15;23.13
20897;BME280;10608;42.600;23.398;2024-03-25T08:59:15;81171.44;;;-138.15;22.75
20897;BME280;10608;42.600;23.398;2024-03-25T09:01:41;81258.84;;;-138.15;23.35
20897;BME280;10608;42.600;23.398;2024-03-25T09:04:06;81252.91;;;-138.15;23.94
20897;BME280;10608;42.600;23.398;2024-03-25T09:06:32;81058.22;;;-138.15;23.00
20897;BME280;10608;42.600;23.398;2024-03-25T09:08:57;80968.81;;;-138.15;23.32
20897;BME280;10608;42.600;23.398;2024-03-25T09:11:41;81076.09;;;-138.15;23.35
20897;BME280;10608;42.600;23.398;2024-03-25T09:14:07;81131.72;;;-138.15;22.82
20897;BME280;10608;42.600;23.398;2024-03-25T09:16:32;81189.31;;;-138.15;23.70
20897;BME280;10608;42.600;23.398;2024-03-25T09:18:57;81175.41;;;-138.15;23.84
20897;BME280;10608;42.600;23.398;2024-03-25T09:21:23;81163.50;;;-138.15;23.70
20897;BME280;10608;42.600;23.398;2024-03-25T09:23:52;81155.56;;;-138.15;23.83
20897;BME280;10608;42.600;23.398;2024-03-25T09:26:18;81131.72;;;-138.15;22.85
20897;BME280;10608;42.600;23.398;2024-03-25T09:28:43;81201.25;;;-138.15;23.10
20897;BME280;10608;42.600;23.398;2024-03-25T09:31:09;81274.75;;;-138.15;23.50
20897;BME280;10608;42.600;23.398;2024-03-25T09:33:34;81678.06;;;-138.15;24.31
20897;BME280;10608;42.600;23.398;2024-03-25T09:36:00;81900.59;;;-138.15;25.15
20897;BME280;10608;42.600;23.398;2024-03-25T09:38:25;82005.88;;;-138.15;25.89
20897;BME280;10608;42.600;23.398;2024-03-25T09:40:52;82427.16;;;-138.15;27.17
20897;BME280;10608;42.600;23.398;2024-03-25T09:43:33;82319.84;;;-138.15;27.22
20897;BME280;10608;42.600;23.398;2024-03-25T09:46:02;82152.94;;;-138.15;26.35
20897;BME280;10608;42.600;23.398;2024-03-25T09:48:28;82137.03;;;-138.15;26.13
20897;BME280;10608;42.600;23.398;2024-03-25T09:50:55;81747.59;;;-138.15;25.89
20897;BME280;10608;42.600;23.398;2024-03-25T09:53:21;81811.16;;;-138.15;26.28
20897;BME280;10608;42.600;23.398;2024-03-25T09:55:47;81811.16;;;-138.15;25.86
20897;BME280;10608;42.600;23.398;2024-03-25T09:58:14;81779.38;;;-138.15;25.33
20897;BME280;10608;42.600;23.398;2024-03-25T10:00:46;81997.94;;;-138.15;25.48
20897;BME280;10608;42.600;23.398;2024-03-25T10:03:40;82137.03;;;-138.15;26.07
20897;BME280;10608;42.600;23.398;2024-03-25T10:06:05;82363.56;;;-138.15;26.58
20897;BME280;10608;42.600;23.398;2024-03-25T10:08:33;82502.66;;;-138.15;28.10
20897;BME280;10608;42.600;23.398;2024-03-25T10:11:00;82586.13;;;-138.15;29.06
20897;BME280;10608;42.600;23.398;2024-03-25T10:13:26;82570.22;;;-138.15;29.80
20897;BME280;10608;42.600;23.398;2024-03-25T10:15:52;82586.13;;;-138.15;29.44
20897;BME280;10608;42.600;23.398;2024-03-25T10:18:17;82717.28;;;-138.15;29.59
20897;BME280;10608;42.600;23.398;2024-03-25T10:20:52;82772.94;;;-138.15;30.36
20897;BME280;10608;42.600;23.398;2024-03-25T10:23:22;82842.50;;;-138.15;29.68
20897;BME280;10608;42.600;23.398;2024-03-25T10:25:48;82780.88;;;-138.15;29.87
20897;BME280;10608;42.600;23.398;2024-03-25T10:28:13;82695.44;;;-138.15;30.86
20897;BME280;10608;42.600;23.398;2024-03-25T10:30:40;82667.59;;;-138.15;29.77
20897;BME280;10608;42.600;23.398;2024-03-25T10:33:07;82667.59;;;-138.15;28.92
20897;BME280;10608;42.600;23.398;2024-03-25T10:35:34;82699.41;;;-138.15;29.93
20897;BME280;10608;42.600;23.398;2024-03-25T10:38:04;82864.38;;;-138.15;28.93
20897;BME280;10608;42.600;23.398;2024-03-25T10:40:31;82910.06;;;-138.15;29.61
20897;BME280;10608;42.600;23.398;2024-03-25T10:43:01;82923.97;;;-138.15;30.39
20897;BME280;10608;42.600;23.398;2024-03-25T10:45:31;82943.84;;;-138.15;30.73
20897;BME280;10608;42.600;23.398;2024-03-25T10:47:57;82916.03;;;-138.15;30.00
20897;BME280;10608;42.600;23.398;2024-03-25T10:50:27;82874.28;;;-138.15;30.86
20897;BME280;10608;42.600;23.398;2024-03-25T10:52:53;82824.63;;;-138.15;30.26
20897;BME280;10608;42.600;23.398;2024-03-25T10:55:20;82800.75;;;-138.15;28.25
20897;BME280;10608;42.600;23.398;2024-03-25T10:57:47;82824.63;;;-138.15;28.86
20897;BME280;10608;42.600;23.398;2024-03-25T11:00:14;82890.19;;;-138.15;29.16
20897;BME280;10608;42.600;23.398;2024-03-25T11:02:44;82866.34;;;-138.15;29.33
20897;BME280;10608;42.600;23.398;2024-03-25T11:05:10;82723.25;;;-138.15;29.22
20897;BME280;10608;42.600;23.398;2024-03-25T11:07:37;82814.69;;;-138.15;29.72
20897;BME280;10608;42.600;23.398;2024-03-25T11:10:07;82776.91;;;-138.15;29.34
20897;BME280;10608;42.600;23.398;2024-03-25T11:12:37;82745.13;;;-138.15;28.88
20897;BME280;10608;42.600;23.398;2024-03-25T11:15:04;82709.34;;;-138.15;28.96
20897;BME280;10608;42.600;23.398;2024-03-25T11:17:31;82737.16;;;-138.15;28.43
20897;BME280;10608;42.600;23.398;2024-03-25T11:20:11;82918.03;;;-138.15;29.12
20897;BME280;10608;42.600;23.398;2024-03-25T11:22:50;82916.03;;;-138.15;28.66
20897;BME280;10608;42.600;23.398;2024-03-25T11:25:16;82943.84;;;-138.15;29.90
20897;BME280;10608;42.600;23.398;2024-03-25T11:27:44;83031.31;;;-138.15;30.36
20897;BME280;10608;42.600;23.398;2024-03-25T11:30:14;82993.53;;;-138.15;29.71
20897;BME280;10608;42.600;23.398;2024-03-25T11:32:53;82947.84;;;-138.15;30.42
20897;BME280;10608;42.600;23.398;2024-03-25T11:35:19;82993.53;;;-138.15;30.41
20897;BME280;10608;42.600;23.398;2024-03-25T11:37:45;83019.38;;;-138.15;29.86
20897;BME280;10608;42.600;23.398;2024-03-25T11:40:12;83035.28;;;-138.15;29.31
20897;BME280;10608;42.600;23.398;2024-03-25T11:42:40;83027.34;;;-138.15;30.11
20897;BME280;10608;42.600;23.398;2024-03-25T11:45:16;83047.22;;;-138.15;30.68
20897;BME280;10608;42.600;23.398;2024-03-25T11:47:46;82983.59;;;-138.15;31.20
20897;BME280;10608;42.600;23.398;2024-03-25T11:50:13;83075.03;;;-138.15;31.26
20897;BME280;10608;42.600;23.398;2024-03-25T11:52:39;83144.59;;;-138.15;31.60
20897;BME280;10608;42.600;23.398;2024-03-25T11:55:05;83208.19;;;-138.15;31.10
20897;BME280;10608;42.600;23.398;2024-03-25T11:57:31;83196.28;;;-138.15;31.50
20897;BME280;10608;42.600;23.398;2024-03-25T11:59:57;83243.97;;;-138.15;32.20
20897;BME280;10608;42.600;23.398;2024-03-25T12:02:23;83184.34;;;-138.15;32.69
20897;BME280;10608;42.600;23.398;2024-03-25T12:04:49;83226.09;;;-138.15;32.57
20897;BME280;10608;42.600;23.398;2024-03-25T12:07:15;83236.03;;;-138.15;32.50
20897;BME280;10608;42.600;23.398;2024-03-25T12:09:41;83243.97;;;-138.15;32.54
20897;BME280;10608;42.600;23.398;2024-03-25T12:12:25;83236.03;;;-138.15;33.02
20897;BME280;10608;42.600;23.398;2024-03-25T12:14:52;83075.03;;;-138.15;33.29
20897;BME280;10608;42.600;23.398;2024-03-25T12:17:18;83186.34;;;-138.15;33.17
20897;BME280;10608;42.600;23.398;2024-03-25T12:19:44;83108.81;;;-138.15;32.32
20897;BME280;10608;42.600;23.398;2024-03-25T12:22:10;83122.72;;;-138.15;31.60
20897;BME280;10608;42.600;23.398;2024-03-25T12:24:35;83098.88;;;-138.15;31.48
20897;BME280;10608;42.600;23.398;2024-03-25T12:27:01;83077.03;;;-138.15;31.92